Terminal Aerodrome Forecast
Issued by NWS

Home | Current Version | Previous Version | Text Only | Print | Product List | Glossary On
Versions: 1 2 3 4 5 6 7 8 9 10 11 12 13 14 15 16 17 18 19 20 21
436
FTUS46 KLOX 201133
TAFWJF
TAF
KWJF 201133Z 2012/2112 24015G25KT P6SM VCSH SCT010 SCT120
     FM201400 23015G25KT P6SM -RA SCT010 BKN030
     FM202000 24015G25KT P6SM -RA SCT025 BKN035
     FM210200 24012KT 6SM -RA BR OVC007
     FM210900 25011KT 6SM BR VCSH OVC015=

USA.gov is the U.S. government's official web portal to all federal, state and local government web resources and services.